createdAt,value
2018-11-02T00:01:37.912Z,101851.17
2018-11-02T00:04:06.628Z,101853.73
2018-11-02T00:06:35.335Z,101859.77
2018-11-02T00:09:04.080Z,101856.75
2018-11-02T00:11:32.712Z,101856.31
2018-11-02T00:14:01.413Z,101861.09
2018-11-02T00:16:30.092Z,101862.41
2018-11-02T00:18:58.751Z,101865.48
2018-11-02T00:21:27.398Z,101868.99
2018-11-02T00:23:56.049Z,101874.62
2018-11-02T00:26:24.759Z,101884.55
2018-11-02T00:28:53.519Z,101881.97
2018-11-02T00:31:22.222Z,101888.00
2018-11-02T00:33:50.919Z,101886.30
2018-11-02T00:36:19.590Z,101889.34
2018-11-02T00:38:48.260Z,101892.79
2018-11-02T00:41:16.929Z,101895.38
2018-11-02T00:43:45.713Z,101895.41
2018-11-02T00:46:14.348Z,101896.69
2018-11-02T00:48:43.019Z,101898.02
2018-11-02T00:51:11.758Z,101901.48
2018-11-02T00:53:40.415Z,101903.66
2018-11-02T00:56:09.137Z,101911.02
2018-11-02T00:58:37.804Z,101916.20
2018-11-02T01:01:06.509Z,101917.11
2018-11-02T01:03:35.155Z,101920.56
2018-11-02T01:06:03.943Z,101927.94
2018-11-02T01:08:32.598Z,101934.41
2018-11-02T01:11:01.429Z,101937.47
2018-11-02T01:13:30.104Z,101940.94
2018-11-02T01:15:58.821Z,101945.23
2018-11-02T01:18:27.544Z,101946.52
2018-11-02T01:20:56.241Z,101953.00
2018-11-02T01:23:24.989Z,101954.32
2018-11-02T01:25:53.699Z,101963.78
2018-11-02T01:28:22.424Z,101966.79
2018-11-02T01:30:51.139Z,101975.42
2018-11-02T01:33:23.977Z,101976.30
2018-11-02T01:35:52.641Z,101974.59
2018-11-02T01:38:21.313Z,101975.47
2018-11-02T01:40:50.052Z,101982.37
2018-11-02T01:43:18.748Z,101991.42
2018-11-02T01:45:48.029Z,101987.98
2018-11-02T01:48:16.778Z,101992.73
2018-11-02T01:50:45.632Z,101988.88
2018-11-02T01:53:14.348Z,101992.34
2018-11-02T01:55:43.060Z,101991.03
2018-11-02T01:58:11.758Z,101988.05
2018-11-02T02:00:40.805Z,101989.77
2018-11-02T02:03:09.488Z,101992.78
2018-11-02T02:05:38.160Z,101995.39
2018-11-02T02:08:06.889Z,102002.69
2018-11-02T02:10:35.592Z,101999.25
2018-11-02T02:13:04.320Z,102012.17
2018-11-02T02:15:33.688Z,102014.34
2018-11-02T02:18:02.364Z,102028.94
2018-11-02T02:20:31.331Z,102017.80
2018-11-02T02:23:00.020Z,102026.83
2018-11-02T02:25:28.725Z,102030.69
2018-11-02T02:27:57.425Z,102036.73
2018-11-02T02:30:26.112Z,102046.19
2018-11-02T02:32:54.819Z,102045.36
2018-11-02T02:35:23.484Z,102044.92
2018-11-02T02:37:52.196Z,102057.39
2018-11-02T02:40:20.924Z,102064.29
2018-11-02T02:42:49.622Z,102061.30
2018-11-02T02:45:18.320Z,102063.87
2018-11-02T02:47:46.993Z,102063.41
2018-11-02T02:50:15.688Z,102068.16
2018-11-02T02:52:45.004Z,102075.05
2018-11-02T02:55:13.701Z,102078.92
2018-11-02T02:57:42.398Z,102090.12
2018-11-02T03:00:12.837Z,102087.54
2018-11-02T03:02:41.635Z,102087.97
2018-11-02T03:05:10.954Z,102087.08
2018-11-02T03:07:40.172Z,102092.24
2018-11-02T03:10:09.289Z,102097.86
2018-11-02T03:12:38.128Z,102103.42
2018-11-02T03:15:07.056Z,102109.02
2018-11-02T03:17:36.018Z,102104.30
2018-11-02T03:20:06.397Z,102107.73
2018-11-02T03:22:35.230Z,102108.58
2018-11-02T03:25:03.820Z,102112.47
2018-11-02T03:27:32.493Z,102117.61
2018-11-02T03:30:01.180Z,102123.66
2018-11-02T03:32:29.844Z,102128.81
2018-11-02T03:34:58.496Z,102121.50
2018-11-02T03:37:27.184Z,102122.34
2018-11-02T03:39:55.903Z,102123.23
2018-11-02T03:42:24.607Z,102129.66
2018-11-02T03:44:53.322Z,102134.82
2018-11-02T03:47:22.077Z,102144.71
2018-11-02T03:49:50.802Z,102155.87
2018-11-02T03:52:19.526Z,102164.50
2018-11-02T03:54:48.224Z,102164.07
2018-11-02T03:57:17.006Z,102167.08
2018-11-02T03:59:45.809Z,102164.92
2018-11-02T04:02:14.526Z,102174.81
2018-11-02T04:04:43.228Z,102176.95
2018-11-02T04:07:11.949Z,102176.53
2018-11-02T04:09:40.798Z,102176.52
2018-11-02T04:12:09.384Z,102186.41
2018-11-02T04:14:38.104Z,102185.97
2018-11-02T04:17:07.158Z,102197.16
2018-11-02T04:19:35.816Z,102209.17
2018-11-02T04:22:04.555Z,102212.63
2018-11-02T04:24:33.228Z,102217.76
2018-11-02T04:27:01.929Z,102222.50
2018-11-02T04:29:30.628Z,102226.78
2018-11-02T04:31:59.313Z,102231.92
2018-11-02T04:34:28.004Z,102230.61
2018-11-02T04:36:56.683Z,102236.63
2018-11-02T04:39:25.348Z,102238.34
2018-11-02T04:41:54.055Z,102240.50
2018-11-02T04:44:22.747Z,102233.16
2018-11-02T04:46:51.478Z,102236.59
2018-11-02T04:49:20.140Z,102244.73
2018-11-02T04:51:48.795Z,102249.47
2018-11-02T04:54:17.508Z,102251.16
2018-11-02T04:56:46.216Z,102251.16
2018-11-02T04:59:14.944Z,102252.03
2018-11-02T05:01:43.644Z,102255.01
2018-11-02T05:04:12.356Z,102256.30
2018-11-02T05:06:41.061Z,102270.87
2018-11-02T05:09:09.817Z,102279.91
2018-11-02T05:11:38.502Z,102286.77
2018-11-02T05:14:07.313Z,102284.20
2018-11-02T05:16:35.997Z,102281.61
2018-11-02T05:19:04.742Z,102278.59
2018-11-02T05:21:33.413Z,102283.74
2018-11-02T05:24:02.051Z,102288.92
2018-11-02T05:26:30.782Z,102290.63
2018-11-02T05:28:59.478Z,102289.34
2018-11-02T05:31:28.164Z,102287.19
2018-11-02T05:33:56.888Z,102300.06
2018-11-02T05:36:25.558Z,102305.64
2018-11-02T05:38:54.238Z,102310.80
2018-11-02T05:41:22.900Z,102309.95
2018-11-02T05:43:51.587Z,102314.66
2018-11-02T05:46:20.425Z,102319.79
2018-11-02T05:48:49.145Z,102324.52
2018-11-02T05:51:17.813Z,102321.08
2018-11-02T05:53:46.540Z,102329.23
2018-11-02T05:56:15.253Z,102330.10
2018-11-02T05:58:43.982Z,102343.83
2018-11-02T06:01:12.665Z,102338.67
2018-11-02T06:03:41.377Z,102341.25
2018-11-02T06:06:10.064Z,102353.24
2018-11-02T06:08:38.753Z,102362.23
2018-11-02T06:11:07.655Z,102369.96
2018-11-02T06:13:36.332Z,102369.94
2018-11-02T06:16:05.136Z,102366.92
2018-11-02T06:18:33.787Z,102376.36
2018-11-02T06:21:02.549Z,102384.05
2018-11-02T06:23:31.216Z,102382.73
2018-11-02T06:25:59.913Z,102386.60
2018-11-02T06:28:28.575Z,102402.47
2018-11-02T06:30:57.304Z,102403.31
2018-11-02T06:33:25.996Z,102408.47
2018-11-02T06:35:54.791Z,102415.29
2018-11-02T06:38:23.455Z,102409.70
2018-11-02T06:40:52.133Z,102424.72
2018-11-02T06:43:20.821Z,102432.41
2018-11-02T06:45:49.520Z,102432.41
2018-11-02T06:48:18.200Z,102435.41
2018-11-02T06:50:47.050Z,102447.38
2018-11-02T06:53:15.672Z,102446.52
2018-11-02T06:55:44.609Z,102466.20
2018-11-02T06:58:13.339Z,102461.92
2018-11-02T07:00:42.085Z,102456.75
2018-11-02T07:03:10.772Z,102456.75
2018-11-02T07:05:39.451Z,102455.01
2018-11-02T07:08:08.394Z,102460.61
2018-11-02T07:10:36.865Z,102467.45
2018-11-02T07:13:05.585Z,102480.33
2018-11-02T07:15:34.317Z,102485.48
2018-11-02T07:18:03.075Z,102495.73
2018-11-02T07:20:31.891Z,102493.16
2018-11-02T07:23:00.717Z,102502.17
2018-11-02T07:25:29.414Z,102503.88
2018-11-02T07:27:58.180Z,102509.44
2018-11-02T07:30:26.885Z,102512.42
2018-11-02T07:32:55.584Z,102517.13
2018-11-02T07:35:24.256Z,102514.96
2018-11-02T07:37:52.925Z,102522.23
2018-11-02T07:40:21.616Z,102523.48
2018-11-02T07:42:50.364Z,102519.20
2018-11-02T07:45:19.128Z,102523.09
2018-11-02T07:47:47.849Z,102525.26
2018-11-02T07:50:16.536Z,102527.00
2018-11-02T07:52:45.245Z,102524.05
2018-11-02T07:55:15.017Z,102527.08
2018-11-02T07:57:43.792Z,102528.40
2018-11-02T08:00:14.762Z,102527.56
2018-11-02T08:02:44.776Z,102541.27
2018-11-02T08:05:14.265Z,102543.43
2018-11-02T08:07:43.159Z,102551.19
2018-11-02T08:10:11.918Z,102557.66
2018-11-02T08:12:40.615Z,102561.14
2018-11-02T08:15:10.800Z,102562.02
2018-11-02T08:17:40.659Z,102563.38
2018-11-02T08:20:10.622Z,102574.59
2018-11-02T08:22:39.424Z,102581.52
2018-11-02T08:25:09.185Z,102584.96
2018-11-02T08:27:37.899Z,102589.73
2018-11-02T08:30:07.852Z,102590.19
2018-11-02T08:32:36.537Z,102591.09
2018-11-02T08:35:06.236Z,102598.02
2018-11-02T08:37:34.941Z,102604.04
2018-11-02T08:40:03.724Z,102601.91
2018-11-02T08:42:32.467Z,102602.40
2018-11-02T08:45:01.117Z,102604.14
2018-11-02T08:47:29.786Z,102602.50
2018-11-02T08:49:58.620Z,102601.66
2018-11-02T08:52:27.318Z,102600.82
2018-11-02T08:54:56.020Z,102611.61
2018-11-02T08:57:24.700Z,102608.61
2018-11-02T08:59:53.383Z,102603.94
2018-11-02T09:02:22.069Z,102601.81
2018-11-02T09:04:50.823Z,102608.28
2018-11-02T09:07:19.630Z,102607.06
2018-11-02T09:09:48.295Z,102616.13
2018-11-02T09:12:17.045Z,102614.05
2018-11-02T09:14:45.677Z,102621.42
2018-11-02T09:17:14.388Z,102627.08
2018-11-02T09:19:43.069Z,102626.29
2018-11-02T09:22:11.801Z,102627.63
2018-11-02T09:24:40.574Z,102625.50
2018-11-02T09:27:09.347Z,102635.88
2018-11-02T09:29:38.021Z,102639.80
2018-11-02T09:32:06.727Z,102633.34
2018-11-02T09:34:35.401Z,102635.97
2018-11-02T09:37:04.076Z,102639.89
2018-11-02T09:39:32.741Z,102647.24
2018-11-02T09:42:01.425Z,102643.83
2018-11-02T09:44:30.244Z,102654.62
2018-11-02T09:46:59.004Z,102656.36
2018-11-02T09:49:27.657Z,102652.09
2018-11-02T09:51:56.391Z,102657.30
2018-11-02T09:54:25.109Z,102651.69
2018-11-02T09:56:53.808Z,102643.09
2018-11-02T09:59:22.506Z,102649.58
2018-11-02T10:01:51.242Z,102646.14
2018-11-02T10:04:19.936Z,102644.88
2018-11-02T10:06:48.704Z,102653.08
2018-11-02T10:09:17.495Z,102648.35
2018-11-02T10:11:46.155Z,102646.21
2018-11-02T10:14:14.867Z,102651.40
2018-11-02T10:16:43.594Z,102656.59
2018-11-02T10:19:13.039Z,102654.44
2018-11-02T10:21:41.821Z,102650.55
2018-11-02T10:24:10.511Z,102647.98
2018-11-02T10:26:39.289Z,102651.01
2018-11-02T10:29:08.078Z,102640.23
2018-11-02T10:31:36.865Z,102641.09
2018-11-02T10:34:05.663Z,102637.22
2018-11-02T10:36:35.117Z,102631.61
2018-11-02T10:39:04.440Z,102632.91
2018-11-02T10:41:38.208Z,102638.07
2018-11-02T10:44:07.012Z,102648.00
2018-11-02T10:46:36.216Z,102653.18
2018-11-02T10:49:04.949Z,102650.15
2018-11-02T10:51:33.717Z,102655.73
2018-11-02T10:54:02.429Z,102654.44
2018-11-02T10:56:31.116Z,102655.72
2018-11-02T10:58:59.835Z,102655.26
2018-11-02T11:01:33.778Z,102654.38
2018-11-02T11:04:02.451Z,102643.58
2018-11-02T11:06:31.153Z,102645.73
2018-11-02T11:08:59.869Z,102653.45
2018-11-02T11:11:28.668Z,102657.77
2018-11-02T11:13:57.350Z,102647.39
2018-11-02T11:16:26.072Z,102645.16
2018-11-02T11:18:54.811Z,102653.78
2018-11-02T11:21:23.595Z,102649.83
2018-11-02T11:23:53.131Z,102647.62
2018-11-02T11:26:21.892Z,102657.97
2018-11-02T11:28:50.599Z,102669.58
2018-11-02T11:31:19.331Z,102664.77
2018-11-02T11:33:48.239Z,102669.04
2018-11-02T11:36:16.954Z,102672.88
2018-11-02T11:38:45.684Z,102669.36
2018-11-02T11:41:14.424Z,102666.70
2018-11-02T11:43:43.125Z,102662.31
2018-11-02T11:46:11.842Z,102668.70
2018-11-02T11:48:40.621Z,102670.37
2018-11-02T11:51:09.276Z,102672.50
2018-11-02T11:53:38.004Z,102661.13
2018-11-02T11:56:07.187Z,102666.63
2018-11-02T11:58:35.921Z,102668.68
2018-11-02T12:01:04.693Z,102664.23
2018-11-02T12:03:33.460Z,102664.11
2018-11-02T12:06:02.174Z,102667.88
2018-11-02T12:08:30.899Z,102665.54
2018-11-02T12:10:59.576Z,102662.37
2018-11-02T12:13:28.301Z,102663.13
2018-11-02T12:15:57.131Z,102669.52
2018-11-02T12:18:25.764Z,102667.75
2018-11-02T12:20:54.494Z,102667.16
2018-11-02T12:23:23.221Z,102671.41
2018-11-02T12:25:51.977Z,102672.17
2018-11-02T12:28:20.683Z,102673.78
2018-11-02T12:30:49.490Z,102674.09
2018-11-02T12:33:18.161Z,102668.33
2018-11-02T12:35:46.843Z,102668.66
2018-11-02T12:38:15.525Z,102675.01
2018-11-02T12:40:44.289Z,102675.30
2018-11-02T12:43:13.047Z,102675.58
2018-11-02T12:45:41.664Z,102677.91
2018-11-02T12:48:10.357Z,102676.41
2018-11-02T12:50:39.220Z,102661.85
2018-11-02T12:53:07.812Z,102671.11
2018-11-02T12:55:36.500Z,102665.14
2018-11-02T12:58:05.299Z,102670.06
2018-11-02T13:00:34.061Z,102663.58
2018-11-02T13:03:02.794Z,102670.10
2018-11-02T13:05:31.507Z,102665.83
2018-11-02T13:08:00.155Z,102667.27
2018-11-02T13:10:28.834Z,102664.70
2018-11-02T13:12:57.521Z,102666.46
2018-11-02T13:15:26.272Z,102667.42
2018-11-02T13:17:55.005Z,102660.11
2018-11-02T13:20:23.825Z,102661.99
2018-11-02T13:22:52.453Z,102663.32
2018-11-02T13:25:22.020Z,102666.14
2018-11-02T13:27:51.364Z,102666.48
2018-11-02T13:30:20.267Z,102672.38
2018-11-02T13:32:48.833Z,102668.55
2018-11-02T13:35:18.809Z,102671.21
2018-11-02T13:37:47.981Z,102661.34
2018-11-02T13:40:17.567Z,102656.50
2018-11-02T13:42:46.338Z,102658.86
2018-11-02T13:45:17.063Z,102648.70
2018-11-02T13:47:45.918Z,102649.00
2018-11-02T13:50:14.719Z,102651.53
2018-11-02T13:52:43.835Z,102650.84
2018-11-02T13:55:12.931Z,102662.61
2018-11-02T13:57:41.909Z,102654.78
2018-11-02T14:00:12.905Z,102663.63
2018-11-02T14:02:41.601Z,102662.06
2018-11-02T14:05:11.825Z,102654.23
2018-11-02T14:07:40.595Z,102667.30
2018-11-02T14:10:10.076Z,102664.46
2018-11-02T14:12:39.330Z,102662.35
2018-11-02T14:15:10.040Z,102669.61
2018-11-02T14:17:38.988Z,102673.03
2018-11-02T14:20:09.067Z,102676.67
2018-11-02T14:22:37.950Z,102671.55
2018-11-02T14:25:07.696Z,102675.70
2018-11-02T14:27:36.592Z,102673.67
2018-11-02T14:30:06.910Z,102676.87
2018-11-02T14:32:35.721Z,102674.75
2018-11-02T14:35:04.561Z,102665.17
2018-11-02T14:37:33.272Z,102661.26
2018-11-02T14:40:01.968Z,102665.94
2018-11-02T14:42:30.885Z,102671.43
2018-11-02T14:44:59.696Z,102677.23
2018-11-02T14:47:28.383Z,102678.76
2018-11-02T14:49:57.094Z,102683.75
2018-11-02T14:52:25.819Z,102680.36
2018-11-02T14:54:54.511Z,102684.75
2018-11-02T14:57:23.180Z,102679.03
2018-11-02T14:59:51.956Z,102674.98
2018-11-02T15:02:20.563Z,102669.69
2018-11-02T15:04:49.251Z,102681.74
2018-11-02T15:07:17.955Z,102681.09
2018-11-02T15:09:46.665Z,102675.28
2018-11-02T15:12:15.352Z,102675.09
2018-11-02T15:14:44.030Z,102675.66
2018-11-02T15:17:13.107Z,102682.19
2018-11-02T15:19:41.940Z,102685.27
2018-11-02T15:22:10.615Z,102683.94
2018-11-02T15:24:39.279Z,102687.53
2018-11-02T15:27:08.037Z,102682.62
2018-11-02T15:29:36.704Z,102681.82
2018-11-02T15:32:05.447Z,102681.20
2018-11-02T15:34:34.170Z,102686.59
2018-11-02T15:37:02.890Z,102695.80
2018-11-02T15:39:31.609Z,102692.01
2018-11-02T15:42:00.308Z,102691.80
2018-11-02T15:44:29.526Z,102688.56
2018-11-02T15:46:58.215Z,102691.83
2018-11-02T15:49:26.898Z,102696.37
2018-11-02T15:51:55.588Z,102693.94
2018-11-02T15:54:24.317Z,102698.02
2018-11-02T15:56:53.060Z,102699.86
2018-11-02T15:59:21.808Z,102698.71
2018-11-02T16:01:50.538Z,102702.73
2018-11-02T16:04:19.237Z,102705.45
2018-11-02T16:06:48.001Z,102707.33
2018-11-02T16:09:16.889Z,102703.09
2018-11-02T16:11:46.440Z,102696.67
2018-11-02T16:14:15.549Z,102705.90
2018-11-02T16:16:44.257Z,102712.07
2018-11-02T16:19:12.961Z,102711.34
2018-11-02T16:21:41.671Z,102709.66
2018-11-02T16:24:11.215Z,102708.45
2018-11-02T16:26:40.429Z,102709.45
2018-11-02T16:29:09.170Z,102716.49
2018-11-02T16:31:37.920Z,102716.12
2018-11-02T16:34:06.805Z,102722.33
2018-11-02T16:36:35.431Z,102722.88
2018-11-02T16:39:05.310Z,102729.91
2018-11-02T16:41:34.056Z,102724.83
2018-11-02T16:44:02.837Z,102723.61
2018-11-02T16:46:31.520Z,102726.28
2018-11-02T16:49:00.193Z,102719.42
2018-11-02T16:51:28.882Z,102723.84
2018-11-02T16:53:57.549Z,102716.97
2018-11-02T16:56:26.277Z,102723.08
2018-11-02T16:58:54.925Z,102725.31
2018-11-02T17:01:23.603Z,102728.83
2018-11-02T17:03:52.253Z,102731.03
2018-11-02T17:06:21.027Z,102725.45
2018-11-02T17:08:49.837Z,102729.40
2018-11-02T17:11:19.900Z,102722.53
2018-11-02T17:13:48.769Z,102720.80
2018-11-02T17:16:17.541Z,102724.30
2018-11-02T17:18:46.255Z,102724.33
2018-11-02T17:21:14.970Z,102719.16
2018-11-02T17:23:43.684Z,102727.00
2018-11-02T17:26:12.418Z,102727.90
2018-11-02T17:28:41.129Z,102723.56
2018-11-02T17:31:09.853Z,102721.86
2018-11-02T17:33:38.511Z,102727.53
2018-11-02T17:36:07.255Z,102733.59
2018-11-02T17:38:35.933Z,102733.62
2018-11-02T17:41:05.551Z,102736.66
2018-11-02T17:43:34.245Z,102736.69
2018-11-02T17:46:02.948Z,102732.82
2018-11-02T17:48:31.700Z,102728.08
2018-11-02T17:51:00.452Z,102741.09
2018-11-02T17:53:29.338Z,102740.68
2018-11-02T17:55:58.073Z,102741.12
2018-11-02T17:58:26.762Z,102747.61
2018-11-02T18:00:55.465Z,102750.68
2018-11-02T18:03:24.289Z,102754.98
2018-11-02T18:05:53.114Z,102759.78
2018-11-02T18:08:22.059Z,102769.75
2018-11-02T18:10:50.772Z,102774.95
2018-11-02T18:13:19.833Z,102769.75
2018-11-02T18:15:48.560Z,102763.67
2018-11-02T18:18:17.264Z,102759.34
2018-11-02T18:20:46.084Z,102765.41
2018-11-02T18:23:14.820Z,102765.87
2018-11-02T18:25:43.547Z,102772.81
2018-11-02T18:28:12.278Z,102774.57
2018-11-02T18:30:40.939Z,102775.03
2018-11-02T18:33:09.625Z,102772.86
2018-11-02T18:35:38.579Z,102776.33
2018-11-02T18:38:07.069Z,102780.69
2018-11-02T18:40:35.852Z,102775.95
2018-11-02T18:43:04.625Z,102775.52
2018-11-02T18:45:33.348Z,102775.52
2018-11-02T18:48:02.154Z,102782.04
2018-11-02T18:50:30.790Z,102780.30
2018-11-02T18:52:59.565Z,102788.10
2018-11-02T18:55:37.157Z,102782.93
2018-11-02T18:58:06.339Z,102790.73
2018-11-02T19:00:35.626Z,102783.83
2018-11-02T19:03:04.423Z,102785.98
2018-11-02T19:05:33.172Z,102782.98
2018-11-02T19:08:02.151Z,102782.98
2018-11-02T19:10:30.970Z,102781.67
2018-11-02T19:12:59.727Z,102779.08
2018-11-02T19:15:28.464Z,102782.14
2018-11-02T19:17:57.215Z,102776.94
2018-11-02T19:20:25.988Z,102773.47
2018-11-02T19:22:54.599Z,102772.61
2018-11-02T19:25:23.296Z,102768.30
2018-11-02T19:27:52.012Z,102767.86
2018-11-02T19:30:20.759Z,102760.50
2018-11-02T19:32:49.513Z,102758.80
2018-11-02T19:35:18.411Z,102757.50
2018-11-02T19:37:47.102Z,102749.70
2018-11-02T19:40:16.360Z,102748.40
2018-11-02T19:42:45.225Z,102746.27
2018-11-02T19:45:14.198Z,102741.93
2018-11-02T19:47:47.916Z,102745.83
2018-11-02T19:50:17.617Z,102736.73
2018-11-02T19:52:46.272Z,102742.36
2018-11-02T19:55:14.968Z,102742.80
2018-11-02T19:57:44.382Z,102740.23
2018-11-02T20:00:14.585Z,102737.20
2018-11-02T20:02:43.435Z,102735.46
2018-11-02T20:05:14.039Z,102740.66
2018-11-02T20:07:43.027Z,102745.85
2018-11-02T20:10:12.650Z,102745.42
2018-11-02T20:12:41.499Z,102741.98
2018-11-02T20:15:11.139Z,102737.22
2018-11-02T20:17:40.177Z,102731.16
2018-11-02T20:20:10.181Z,102735.48
2018-11-02T20:22:39.295Z,102740.68
2018-11-02T20:25:09.404Z,102738.95
2018-11-02T20:27:38.106Z,102737.22
2018-11-02T20:30:09.685Z,102737.22
2018-11-02T20:32:38.501Z,102738.52
2018-11-02T20:35:07.718Z,102744.58
2018-11-02T20:37:36.590Z,102745.91
2018-11-02T20:40:07.409Z,102746.73
2018-11-02T20:42:36.117Z,102738.97
2018-11-02T20:45:05.032Z,102742.01
2018-11-02T20:47:38.978Z,102741.14
2018-11-02T20:50:08.652Z,102734.64
2018-11-02T20:52:37.376Z,102735.52
2018-11-02T20:55:06.720Z,102743.30
2018-11-02T20:57:35.759Z,102741.14
2018-11-02T21:00:04.920Z,102731.61
2018-11-02T21:02:33.662Z,102735.05
2018-11-02T21:05:02.924Z,102740.68
2018-11-02T21:07:31.643Z,102738.52
2018-11-02T21:10:00.296Z,102745.45
2018-11-02T21:12:29.008Z,102734.19
2018-11-02T21:14:57.718Z,102737.22
2018-11-02T21:17:26.385Z,102735.48
2018-11-02T21:19:55.094Z,102725.52
2018-11-02T21:22:23.773Z,102729.42
2018-11-02T21:24:52.448Z,102728.98
2018-11-02T21:27:21.204Z,102720.77
2018-11-02T21:29:49.823Z,102724.66
2018-11-02T21:32:18.550Z,102720.33
2018-11-02T21:34:47.272Z,102719.03
2018-11-02T21:37:15.988Z,102722.92
2018-11-02T21:39:44.702Z,102729.42
2018-11-02T21:42:13.377Z,102737.19
2018-11-02T21:44:42.069Z,102732.42
2018-11-02T21:47:10.747Z,102735.92
2018-11-02T21:49:39.453Z,102744.12
2018-11-02T21:52:08.119Z,102735.02
2018-11-02T21:54:36.820Z,102742.39
2018-11-02T21:57:05.804Z,102743.25
2018-11-02T21:59:34.550Z,102741.95
2018-11-02T22:02:03.271Z,102738.92
2018-11-02T22:04:31.996Z,102735.89
2018-11-02T22:07:00.690Z,102740.62
2018-11-02T22:09:29.433Z,102744.09
2018-11-02T22:11:58.127Z,102748.00
2018-11-02T22:14:26.793Z,102743.23
2018-11-02T22:16:55.493Z,102738.90
2018-11-02T22:19:24.237Z,102738.47
2018-11-02T22:21:52.864Z,102738.00
2018-11-02T22:24:21.792Z,102741.91
2018-11-02T22:26:51.234Z,102731.08
2018-11-02T22:29:19.916Z,102734.08
2018-11-02T22:31:48.572Z,102734.09
2018-11-02T22:34:17.233Z,102735.78
2018-11-02T22:36:45.889Z,102717.59
2018-11-02T22:39:14.599Z,102707.64
2018-11-02T22:41:43.255Z,102710.67
2018-11-02T22:44:11.910Z,102708.47
2018-11-02T22:46:40.621Z,102708.91
2018-11-02T22:49:09.337Z,102707.17
2018-11-02T22:51:38.056Z,102697.21
2018-11-02T22:54:06.838Z,102704.98
2018-11-02T22:56:35.529Z,102700.68
2018-11-02T22:59:04.336Z,102701.52
2018-11-02T23:01:33.059Z,102701.95
2018-11-02T23:04:02.033Z,102699.34
2018-11-02T23:06:30.887Z,102690.25
2018-11-02T23:08:59.618Z,102694.58
2018-11-02T23:11:28.355Z,102690.69
2018-11-02T23:13:57.040Z,102681.56
2018-11-02T23:16:25.721Z,102671.59
2018-11-02T23:18:54.376Z,102675.92
2018-11-02T23:21:23.074Z,102668.56
2018-11-02T23:23:51.750Z,102660.77
2018-11-02T23:26:20.491Z,102655.09
2018-11-02T23:28:49.233Z,102650.77
2018-11-02T23:31:17.929Z,102655.97
2018-11-02T23:33:46.639Z,102649.91
2018-11-02T23:36:15.359Z,102653.80
2018-11-02T23:38:44.061Z,102641.20
2018-11-02T23:41:12.791Z,102640.34
2018-11-02T23:43:41.488Z,102626.48
2018-11-02T23:46:10.206Z,102626.01
2018-11-02T23:48:38.881Z,102623.37
2018-11-02T23:51:07.608Z,102615.14
2018-11-02T23:53:36.305Z,102619.05
2018-11-02T23:56:05.064Z,102617.28
2018-11-02T23:58:33.750Z,102611.21
